sensor_id;sensor_type;location;lat;lon;timestamp;temperature;humidity
40538;DHT22;27925;41.874;12.526;2023-09-19T00:00:23;25.90;74.00
40538;DHT22;27925;41.874;12.526;2023-09-19T00:02:58;25.90;74.00
40538;DHT22;27925;41.874;12.526;2023-09-19T00:05:28;25.90;73.70
40538;DHT22;27925;41.874;12.526;2023-09-19T00:07:56;25.90;73.70
40538;DHT22;27925;41.874;12.526;2023-09-19T00:10:25;25.90;73.80
40538;DHT22;27925;41.874;12.526;2023-09-19T00:12:53;25.90;74.00
40538;DHT22;27925;41.874;12.526;2023-09-19T00:15:24;25.90;73.80
40538;DHT22;27925;41.874;12.526;2023-09-19T00:17:51;25.90;73.80
40538;DHT22;27925;41.874;12.526;2023-09-19T00:20:18;25.90;73.90
40538;DHT22;27925;41.874;12.526;2023-09-19T00:22:44;25.90;73.70
40538;DHT22;27925;41.874;12.526;2023-09-19T00:25:11;25.80;74.30
40538;DHT22;27925;41.874;12.526;2023-09-19T00:27:40;25.80;73.80
40538;DHT22;27925;41.874;12.526;2023-09-19T00:30:08;25.80;73.90
40538;DHT22;27925;41.874;12.526;2023-09-19T00:32:40;25.80;73.90
40538;DHT22;27925;41.874;12.526;2023-09-19T00:35:06;25.80;74.10
40538;DHT22;27925;41.874;12.526;2023-09-19T00:37:33;25.80;73.80
40538;DHT22;27925;41.874;12.526;2023-09-19T00:39:59;25.70;73.60
40538;DHT22;27925;41.874;12.526;2023-09-19T00:42:25;25.70;73.50
40538;DHT22;27925;41.874;12.526;2023-09-19T00:44:51;25.70;73.50
40538;DHT22;27925;41.874;12.526;2023-09-19T00:47:17;25.70;73.40
40538;DHT22;27925;41.874;12.526;2023-09-19T00:49:47;25.70;73.30
40538;DHT22;27925;41.874;12.526;2023-09-19T00:52:16;25.70;72.60
40538;DHT22;27925;41.874;12.526;2023-09-19T00:54:48;25.70;72.80
40538;DHT22;27925;41.874;12.526;2023-09-19T00:57:14;25.70;72.70
40538;DHT22;27925;41.874;12.526;2023-09-19T00:59:45;25.70;72.50
40538;DHT22;27925;41.874;12.526;2023-09-19T01:02:15;25.70;72.40
40538;DHT22;27925;41.874;12.526;2023-09-19T01:04:42;25.70;72.30
40538;DHT22;27925;41.874;12.526;2023-09-19T01:07:08;25.70;72.00
40538;DHT22;27925;41.874;12.526;2023-09-19T01:09:35;25.70;72.00
40538;DHT22;27925;41.874;12.526;2023-09-19T01:12:03;25.70;71.80
40538;DHT22;27925;41.874;12.526;2023-09-19T01:14:44;25.70;71.90
40538;DHT22;27925;41.874;12.526;2023-09-19T01:17:20;25.70;71.60
40538;DHT22;27925;41.874;12.526;2023-09-19T01:20:00;25.70;72.10
40538;DHT22;27925;41.874;12.526;2023-09-19T01:30:44;25.50;73.10
40538;DHT22;27925;41.874;12.526;2023-09-19T01:33:10;25.50;73.40
40538;DHT22;27925;41.874;12.526;2023-09-19T01:35:40;25.40;73.80
40538;DHT22;27925;41.874;12.526;2023-09-19T01:38:06;25.40;74.10
40538;DHT22;27925;41.874;12.526;2023-09-19T01:40:42;25.40;74.50
40538;DHT22;27925;41.874;12.526;2023-09-19T01:51:42;25.30;76.00
40538;DHT22;27925;41.874;12.526;2023-09-19T01:54:12;25.30;75.70
40538;DHT22;27925;41.874;12.526;2023-09-19T01:56:50;25.20;75.90
40538;DHT22;27925;41.874;12.526;2023-09-19T01:59:25;25.20;76.20
40538;DHT22;27925;41.874;12.526;2023-09-19T02:01:55;25.20;76.40
40538;DHT22;27925;41.874;12.526;2023-09-19T02:04:21;25.20;76.10
40538;DHT22;27925;41.874;12.526;2023-09-19T02:06:47;25.20;75.90
40538;DHT22;27925;41.874;12.526;2023-09-19T02:09:14;25.20;75.80
40538;DHT22;27925;41.874;12.526;2023-09-19T02:11:40;25.10;75.60
40538;DHT22;27925;41.874;12.526;2023-09-19T02:14:08;25.10;76.00
40538;DHT22;27925;41.874;12.526;2023-09-19T02:16:34;25.10;76.30
40538;DHT22;27925;41.874;12.526;2023-09-19T02:19:00;25.10;76.30
40538;DHT22;27925;41.874;12.526;2023-09-19T02:21:26;25.00;76.70
40538;DHT22;27925;41.874;12.526;2023-09-19T02:23:55;25.00;76.90
40538;DHT22;27925;41.874;12.526;2023-09-19T02:26:21;24.90;77.10
40538;DHT22;27925;41.874;12.526;2023-09-19T02:28:51;24.80;76.60
40538;DHT22;27925;41.874;12.526;2023-09-19T02:31:16;24.70;76.00
40538;DHT22;27925;41.874;12.526;2023-09-19T02:33:42;24.70;75.70
40538;DHT22;27925;41.874;12.526;2023-09-19T02:36:08;24.70;75.00
40538;DHT22;27925;41.874;12.526;2023-09-19T02:38:34;24.60;74.20
40538;DHT22;27925;41.874;12.526;2023-09-19T02:41:00;24.60;74.10
40538;DHT22;27925;41.874;12.526;2023-09-19T02:43:27;24.70;74.10
40538;DHT22;27925;41.874;12.526;2023-09-19T02:45:53;24.70;73.80
40538;DHT22;27925;41.874;12.526;2023-09-19T02:48:22;24.70;73.80
40538;DHT22;27925;41.874;12.526;2023-09-19T02:50:51;24.70;73.80
40538;DHT22;27925;41.874;12.526;2023-09-19T02:53:17;24.70;73.80
40538;DHT22;27925;41.874;12.526;2023-09-19T02:55:42;24.70;73.80
40538;DHT22;27925;41.874;12.526;2023-09-19T02:58:08;24.70;74.00
40538;DHT22;27925;41.874;12.526;2023-09-19T03:00:36;24.60;74.00
40538;DHT22;27925;41.874;12.526;2023-09-19T03:03:02;24.60;74.20
40538;DHT22;27925;41.874;12.526;2023-09-19T03:05:28;24.50;74.30
40538;DHT22;27925;41.874;12.526;2023-09-19T03:07:56;24.60;74.30
40538;DHT22;27925;41.874;12.526;2023-09-19T03:10:22;24.50;74.50
40538;DHT22;27925;41.874;12.526;2023-09-19T03:12:50;24.50;74.70
40538;DHT22;27925;41.874;12.526;2023-09-19T03:15:16;24.50;74.90
40538;DHT22;27925;41.874;12.526;2023-09-19T03:17:44;24.60;75.00
40538;DHT22;27925;41.874;12.526;2023-09-19T03:20:10;24.70;75.00
40538;DHT22;27925;41.874;12.526;2023-09-19T03:22:38;24.70;75.10
40538;DHT22;27925;41.874;12.526;2023-09-19T03:25:06;24.70;75.20
40538;DHT22;27925;41.874;12.526;2023-09-19T03:27:36;24.70;75.30
40538;DHT22;27925;41.874;12.526;2023-09-19T03:30:03;24.70;75.20
40538;DHT22;27925;41.874;12.526;2023-09-19T03:32:33;24.70;75.00
40538;DHT22;27925;41.874;12.526;2023-09-19T03:35:00;24.70;74.80
40538;DHT22;27925;41.874;12.526;2023-09-19T03:37:25;24.50;74.80
40538;DHT22;27925;41.874;12.526;2023-09-19T03:39:51;24.50;74.90
40538;DHT22;27925;41.874;12.526;2023-09-19T03:42:17;24.60;74.90
40538;DHT22;27925;41.874;12.526;2023-09-19T03:44:43;24.60;75.00
40538;DHT22;27925;41.874;12.526;2023-09-19T03:47:08;24.50;74.60
40538;DHT22;27925;41.874;12.526;2023-09-19T03:49:34;24.50;74.70
40538;DHT22;27925;41.874;12.526;2023-09-19T03:52:00;24.50;74.60
40538;DHT22;27925;41.874;12.526;2023-09-19T03:54:25;24.50;74.60
40538;DHT22;27925;41.874;12.526;2023-09-19T03:56:51;24.50;74.50
40538;DHT22;27925;41.874;12.526;2023-09-19T03:59:17;24.50;74.50
40538;DHT22;27925;41.874;12.526;2023-09-19T04:01:43;24.60;74.50
40538;DHT22;27925;41.874;12.526;2023-09-19T04:04:09;24.60;74.70
40538;DHT22;27925;41.874;12.526;2023-09-19T04:06:35;24.60;74.60
40538;DHT22;27925;41.874;12.526;2023-09-19T04:09:04;24.60;74.40
40538;DHT22;27925;41.874;12.526;2023-09-19T04:11:32;24.60;74.40
40538;DHT22;27925;41.874;12.526;2023-09-19T04:13:58;24.50;74.30
40538;DHT22;27925;41.874;12.526;2023-09-19T04:16:24;24.50;74.20
40538;DHT22;27925;41.874;12.526;2023-09-19T04:18:50;24.50;74.30
40538;DHT22;27925;41.874;12.526;2023-09-19T04:21:16;24.50;74.20
40538;DHT22;27925;41.874;12.526;2023-09-19T04:23:42;24.40;74.00
40538;DHT22;27925;41.874;12.526;2023-09-19T04:26:08;24.40;73.90
40538;DHT22;27925;41.874;12.526;2023-09-19T04:28:34;24.40;74.00
40538;DHT22;27925;41.874;12.526;2023-09-19T04:31:00;24.40;73.70
40538;DHT22;27925;41.874;12.526;2023-09-19T04:33:26;24.40;73.90
40538;DHT22;27925;41.874;12.526;2023-09-19T04:35:55;24.40;74.00
40538;DHT22;27925;41.874;12.526;2023-09-19T04:38:21;24.40;73.60
40538;DHT22;27925;41.874;12.526;2023-09-19T04:40:47;24.30;73.40
40538;DHT22;27925;41.874;12.526;2023-09-19T04:43:13;24.30;73.10
40538;DHT22;27925;41.874;12.526;2023-09-19T04:45:41;24.30;72.80
40538;DHT22;27925;41.874;12.526;2023-09-19T04:48:06;24.30;72.50
40538;DHT22;27925;41.874;12.526;2023-09-19T04:50:34;24.40;72.20
40538;DHT22;27925;41.874;12.526;2023-09-19T04:53:00;24.30;71.70
40538;DHT22;27925;41.874;12.526;2023-09-19T04:55:26;24.30;71.40
40538;DHT22;27925;41.874;12.526;2023-09-19T04:57:53;24.30;71.00
40538;DHT22;27925;41.874;12.526;2023-09-19T05:00:22;24.30;70.70
40538;DHT22;27925;41.874;12.526;2023-09-19T05:02:50;24.30;70.50
40538;DHT22;27925;41.874;12.526;2023-09-19T05:05:17;24.30;70.40
40538;DHT22;27925;41.874;12.526;2023-09-19T05:07:45;24.20;70.30
40538;DHT22;27925;41.874;12.526;2023-09-19T05:10:10;24.20;70.40
40538;DHT22;27925;41.874;12.526;2023-09-19T05:12:37;24.30;70.20
40538;DHT22;27925;41.874;12.526;2023-09-19T05:15:03;24.30;70.10
40538;DHT22;27925;41.874;12.526;2023-09-19T05:17:30;24.30;69.90
40538;DHT22;27925;41.874;12.526;2023-09-19T05:19:57;24.30;69.60
40538;DHT22;27925;41.874;12.526;2023-09-19T05:22:26;24.30;69.50
40538;DHT22;27925;41.874;12.526;2023-09-19T05:24:52;24.30;69.40
40538;DHT22;27925;41.874;12.526;2023-09-19T05:27:19;24.30;69.10
40538;DHT22;27925;41.874;12.526;2023-09-19T05:29:46;24.30;69.10
40538;DHT22;27925;41.874;12.526;2023-09-19T05:32:12;24.30;68.50
40538;DHT22;27925;41.874;12.526;2023-09-19T05:34:38;24.30;68.70
40538;DHT22;27925;41.874;12.526;2023-09-19T05:37:05;24.30;68.50
40538;DHT22;27925;41.874;12.526;2023-09-19T05:39:33;24.30;68.40
40538;DHT22;27925;41.874;12.526;2023-09-19T05:41:59;24.30;68.30
40538;DHT22;27925;41.874;12.526;2023-09-19T05:44:26;24.40;68.20
40538;DHT22;27925;41.874;12.526;2023-09-19T05:46:51;24.40;68.10
40538;DHT22;27925;41.874;12.526;2023-09-19T05:49:17;24.40;68.00
40538;DHT22;27925;41.874;12.526;2023-09-19T05:51:43;24.40;67.80
40538;DHT22;27925;41.874;12.526;2023-09-19T05:54:09;24.40;67.80
40538;DHT22;27925;41.874;12.526;2023-09-19T05:56:36;24.50;67.90
40538;DHT22;27925;41.874;12.526;2023-09-19T05:59:02;24.50;67.90
40538;DHT22;27925;41.874;12.526;2023-09-19T06:01:29;24.60;67.80
40538;DHT22;27925;41.874;12.526;2023-09-19T06:03:58;24.60;67.60
40538;DHT22;27925;41.874;12.526;2023-09-19T06:06:25;24.70;67.70
40538;DHT22;27925;41.874;12.526;2023-09-19T06:08:51;24.70;68.10
40538;DHT22;27925;41.874;12.526;2023-09-19T06:11:17;24.80;67.70
40538;DHT22;27925;41.874;12.526;2023-09-19T06:13:46;24.80;67.50
40538;DHT22;27925;41.874;12.526;2023-09-19T06:16:13;24.80;67.40
40538;DHT22;27925;41.874;12.526;2023-09-19T06:18:38;24.80;67.50
40538;DHT22;27925;41.874;12.526;2023-09-19T06:21:05;24.90;67.40
40538;DHT22;27925;41.874;12.526;2023-09-19T06:23:30;24.90;67.50
40538;DHT22;27925;41.874;12.526;2023-09-19T06:25:56;24.90;67.40
40538;DHT22;27925;41.874;12.526;2023-09-19T06:28:23;24.90;67.20
40538;DHT22;27925;41.874;12.526;2023-09-19T06:30:51;25.00;67.30
40538;DHT22;27925;41.874;12.526;2023-09-19T06:33:17;25.00;67.10
40538;DHT22;27925;41.874;12.526;2023-09-19T06:35:43;25.00;67.10
40538;DHT22;27925;41.874;12.526;2023-09-19T06:38:10;25.10;67.00
40538;DHT22;27925;41.874;12.526;2023-09-19T06:40:36;25.10;66.80
40538;DHT22;27925;41.874;12.526;2023-09-19T06:43:03;25.10;66.80
40538;DHT22;27925;41.874;12.526;2023-09-19T06:45:30;25.10;66.60
40538;DHT22;27925;41.874;12.526;2023-09-19T06:47:57;25.30;66.70
40538;DHT22;27925;41.874;12.526;2023-09-19T06:50:25;25.40;66.50
40538;DHT22;27925;41.874;12.526;2023-09-19T06:52:52;25.40;66.30
40538;DHT22;27925;41.874;12.526;2023-09-19T06:55:19;25.50;66.40
40538;DHT22;27925;41.874;12.526;2023-09-19T06:57:46;25.60;66.20
40538;DHT22;27925;41.874;12.526;2023-09-19T07:00:13;25.70;66.20
40538;DHT22;27925;41.874;12.526;2023-09-19T07:02:44;25.80;65.90
40538;DHT22;27925;41.874;12.526;2023-09-19T07:05:10;26.00;65.80
40538;DHT22;27925;41.874;12.526;2023-09-19T07:07:36;26.10;66.00
40538;DHT22;27925;41.874;12.526;2023-09-19T07:10:03;26.30;65.30
40538;DHT22;27925;41.874;12.526;2023-09-19T07:12:31;26.40;65.60
40538;DHT22;27925;41.874;12.526;2023-09-19T07:14:58;26.60;64.90
40538;DHT22;27925;41.874;12.526;2023-09-19T07:17:23;26.80;64.70
40538;DHT22;27925;41.874;12.526;2023-09-19T07:19:49;26.90;64.20
40538;DHT22;27925;41.874;12.526;2023-09-19T07:22:16;27.10;64.20
40538;DHT22;27925;41.874;12.526;2023-09-19T07:24:41;27.30;63.80
40538;DHT22;27925;41.874;12.526;2023-09-19T07:27:08;27.40;63.50
40538;DHT22;27925;41.874;12.526;2023-09-19T07:29:34;27.60;63.20
40538;DHT22;27925;41.874;12.526;2023-09-19T07:32:00;27.70;63.20
40538;DHT22;27925;41.874;12.526;2023-09-19T07:34:25;27.80;62.90
40538;DHT22;27925;41.874;12.526;2023-09-19T07:36:51;27.90;62.80
40538;DHT22;27925;41.874;12.526;2023-09-19T07:39:17;28.00;62.70
40538;DHT22;27925;41.874;12.526;2023-09-19T07:41:42;28.00;62.70
40538;DHT22;27925;41.874;12.526;2023-09-19T07:44:08;28.00;62.40
40538;DHT22;27925;41.874;12.526;2023-09-19T07:46:35;28.00;62.00
40538;DHT22;27925;41.874;12.526;2023-09-19T07:49:01;28.00;62.30
40538;DHT22;27925;41.874;12.526;2023-09-19T07:51:27;28.00;62.30
40538;DHT22;27925;41.874;12.526;2023-09-19T07:53:53;28.10;62.10
40538;DHT22;27925;41.874;12.526;2023-09-19T07:56:20;28.10;62.10
40538;DHT22;27925;41.874;12.526;2023-09-19T07:58:46;28.10;62.30
40538;DHT22;27925;41.874;12.526;2023-09-19T08:01:12;28.00;62.30
40538;DHT22;27925;41.874;12.526;2023-09-19T08:03:39;28.10;62.60
40538;DHT22;27925;41.874;12.526;2023-09-19T08:06:09;28.10;62.60
40538;DHT22;27925;41.874;12.526;2023-09-19T08:08:36;28.10;62.70
40538;DHT22;27925;41.874;12.526;2023-09-19T08:11:05;28.10;63.00
40538;DHT22;27925;41.874;12.526;2023-09-19T08:13:41;28.10;63.00
40538;DHT22;27925;41.874;12.526;2023-09-19T08:16:10;28.10;63.30
40538;DHT22;27925;41.874;12.526;2023-09-19T08:18:36;28.00;63.00
40538;DHT22;27925;41.874;12.526;2023-09-19T08:21:05;28.10;63.40
40538;DHT22;27925;41.874;12.526;2023-09-19T08:23:33;28.10;63.30
40538;DHT22;27925;41.874;12.526;2023-09-19T08:25:59;28.20;63.50
40538;DHT22;27925;41.874;12.526;2023-09-19T08:28:28;28.20;63.80
40538;DHT22;27925;41.874;12.526;2023-09-19T08:30:55;28.20;63.80
40538;DHT22;27925;41.874;12.526;2023-09-19T08:33:21;28.20;63.90
40538;DHT22;27925;41.874;12.526;2023-09-19T08:35:46;28.30;64.30
40538;DHT22;27925;41.874;12.526;2023-09-19T08:38:12;28.30;64.40
40538;DHT22;27925;41.874;12.526;2023-09-19T08:40:40;28.40;65.10
40538;DHT22;27925;41.874;12.526;2023-09-19T08:43:07;28.40;65.50
40538;DHT22;27925;41.874;12.526;2023-09-19T08:45:33;28.50;65.90
40538;DHT22;27925;41.874;12.526;2023-09-19T08:48:25;28.50;66.00
40538;DHT22;27925;41.874;12.526;2023-09-19T08:51:07;28.60;66.30
40538;DHT22;27925;41.874;12.526;2023-09-19T08:53:41;28.60;66.10
40538;DHT22;27925;41.874;12.526;2023-09-19T08:56:11;28.60;66.20
40538;DHT22;27925;41.874;12.526;2023-09-19T08:59:00;28.70;66.00
40538;DHT22;27925;41.874;12.526;2023-09-19T09:01:28;28.70;65.70
40538;DHT22;27925;41.874;12.526;2023-09-19T09:03:56;28.80;65.70
40538;DHT22;27925;41.874;12.526;2023-09-19T09:06:23;28.80;65.30
40538;DHT22;27925;41.874;12.526;2023-09-19T09:08:50;28.90;65.20
40538;DHT22;27925;41.874;12.526;2023-09-19T09:11:17;29.00;65.10
40538;DHT22;27925;41.874;12.526;2023-09-19T09:13:46;29.00;64.90
40538;DHT22;27925;41.874;12.526;2023-09-19T09:16:13;29.00;64.80
40538;DHT22;27925;41.874;12.526;2023-09-19T09:18:43;29.00;64.70
40538;DHT22;27925;41.874;12.526;2023-09-19T09:21:10;29.10;64.70
40538;DHT22;27925;41.874;12.526;2023-09-19T09:23:35;29.10;65.00
40538;DHT22;27925;41.874;12.526;2023-09-19T09:26:01;29.20;65.10
40538;DHT22;27925;41.874;12.526;2023-09-19T09:28:33;29.20;65.10
40538;DHT22;27925;41.874;12.526;2023-09-19T09:30:59;29.20;65.00
40538;DHT22;27925;41.874;12.526;2023-09-19T09:33:28;29.30;65.00
40538;DHT22;27925;41.874;12.526;2023-09-19T09:36:02;29.30;65.00
40538;DHT22;27925;41.874;12.526;2023-09-19T09:38:30;29.40;64.80
40538;DHT22;27925;41.874;12.526;2023-09-19T09:41:09;29.40;64.50
40538;DHT22;27925;41.874;12.526;2023-09-19T09:43:37;29.50;64.30
40538;DHT22;27925;41.874;12.526;2023-09-19T09:48:45;29.60;64.10
40538;DHT22;27925;41.874;12.526;2023-09-19T09:51:29;29.60;63.40
40538;DHT22;27925;41.874;12.526;2023-09-19T09:54:10;29.60;62.30
40538;DHT22;27925;41.874;12.526;2023-09-19T09:56:58;29.70;61.60
40538;DHT22;27925;41.874;12.526;2023-09-19T10:02:18;29.70;61.30
40538;DHT22;27925;41.874;12.526;2023-09-19T10:04:53;29.70;61.00
40538;DHT22;27925;41.874;12.526;2023-09-19T10:07:29;29.80;61.20
40538;DHT22;27925;41.874;12.526;2023-09-19T10:10:04;29.80;61.00
40538;DHT22;27925;41.874;12.526;2023-09-19T10:12:43;29.80;60.50
40538;DHT22;27925;41.874;12.526;2023-09-19T10:15:11;30.00;60.30
40538;DHT22;27925;41.874;12.526;2023-09-19T10:17:39;30.00;60.50
40538;DHT22;27925;41.874;12.526;2023-09-19T10:20:06;30.00;60.10
40538;DHT22;27925;41.874;12.526;2023-09-19T10:22:43;30.10;60.00
40538;DHT22;27925;41.874;12.526;2023-09-19T10:25:26;30.10;59.40
40538;DHT22;27925;41.874;12.526;2023-09-19T10:27:54;30.00;59.20
40538;DHT22;27925;41.874;12.526;2023-09-19T10:30:23;30.10;59.30
40538;DHT22;27925;41.874;12.526;2023-09-19T10:33:03;30.10;59.10
40538;DHT22;27925;41.874;12.526;2023-09-19T10:35:29;30.20;59.00
40538;DHT22;27925;41.874;12.526;2023-09-19T10:37:59;30.20;58.80
40538;DHT22;27925;41.874;12.526;2023-09-19T10:40:27;30.20;58.90
40538;DHT22;27925;41.874;12.526;2023-09-19T10:43:03;30.20;58.70
40538;DHT22;27925;41.874;12.526;2023-09-19T10:45:31;30.30;58.50
40538;DHT22;27925;41.874;12.526;2023-09-19T10:47:58;30.30;58.60
40538;DHT22;27925;41.874;12.526;2023-09-19T10:50:24;30.30;58.70
40538;DHT22;27925;41.874;12.526;2023-09-19T10:52:52;30.30;58.50
40538;DHT22;27925;41.874;12.526;2023-09-19T10:55:27;30.40;58.50
40538;DHT22;27925;41.874;12.526;2023-09-19T10:57:54;30.40;58.30
40538;DHT22;27925;41.874;12.526;2023-09-19T11:00:55;30.40;58.00
40538;DHT22;27925;41.874;12.526;2023-09-19T11:03:23;30.50;57.70
40538;DHT22;27925;41.874;12.526;2023-09-19T11:06:18;30.50;57.40
40538;DHT22;27925;41.874;12.526;2023-09-19T11:09:05;30.60;57.10
40538;DHT22;27925;41.874;12.526;2023-09-19T11:11:51;30.60;56.80
40538;DHT22;27925;41.874;12.526;2023-09-19T11:30:46;30.80;55.30
40538;DHT22;27925;41.874;12.526;2023-09-19T11:46:52;31.00;54.60
40538;DHT22;27925;41.874;12.526;2023-09-19T11:49:29;31.10;54.60
40538;DHT22;27925;41.874;12.526;2023-09-19T11:51:56;31.20;54.80
40538;DHT22;27925;41.874;12.526;2023-09-19T11:54:22;31.20;54.70
40538;DHT22;27925;41.874;12.526;2023-09-19T11:56:51;31.30;54.40
40538;DHT22;27925;41.874;12.526;2023-09-19T11:59:21;31.30;54.50
40538;DHT22;27925;41.874;12.526;2023-09-19T12:01:52;31.40;54.40
40538;DHT22;27925;41.874;12.526;2023-09-19T12:07:10;31.40;53.20
40538;DHT22;27925;41.874;12.526;2023-09-19T12:09:44;31.40;54.70
40538;DHT22;27925;41.874;12.526;2023-09-19T12:12:23;31.40;53.60
40538;DHT22;27925;41.874;12.526;2023-09-19T12:14:53;31.30;54.80
40538;DHT22;27925;41.874;12.526;2023-09-19T12:17:19;31.30;54.80
40538;DHT22;27925;41.874;12.526;2023-09-19T12:19:56;31.30;55.00
40538;DHT22;27925;41.874;12.526;2023-09-19T12:22:22;31.40;55.20
40538;DHT22;27925;41.874;12.526;2023-09-19T12:24:48;31.30;55.10
40538;DHT22;27925;41.874;12.526;2023-09-19T12:27:16;31.30;54.70
40538;DHT22;27925;41.874;12.526;2023-09-19T12:29:49;31.30;55.00
40538;DHT22;27925;41.874;12.526;2023-09-19T12:32:15;31.20;54.90
40538;DHT22;27925;41.874;12.526;2023-09-19T12:34:53;31.30;55.60
40538;DHT22;27925;41.874;12.526;2023-09-19T12:37:20;31.40;55.80
40538;DHT22;27925;41.874;12.526;2023-09-19T12:39:53;31.30;55.60
40538;DHT22;27925;41.874;12.526;2023-09-19T12:42:24;31.30;55.40
40538;DHT22;27925;41.874;12.526;2023-09-19T12:44:54;31.30;55.60
40538;DHT22;27925;41.874;12.526;2023-09-19T12:47:27;31.40;55.50
40538;DHT22;27925;41.874;12.526;2023-09-19T12:50:07;31.40;55.50
40538;DHT22;27925;41.874;12.526;2023-09-19T12:52:38;31.40;54.50
40538;DHT22;27925;41.874;12.526;2023-09-19T12:55:04;31.40;53.70
40538;DHT22;27925;41.874;12.526;2023-09-19T12:57:35;31.40;54.40
40538;DHT22;27925;41.874;12.526;2023-09-19T13:00:04;31.40;53.70
40538;DHT22;27925;41.874;12.526;2023-09-19T13:02:31;31.40;54.30
40538;DHT22;27925;41.874;12.526;2023-09-19T13:04:58;31.40;54.50
40538;DHT22;27925;41.874;12.526;2023-09-19T13:07:44;31.40;54.50
40538;DHT22;27925;41.874;12.526;2023-09-19T13:10:15;31.50;54.60
40538;DHT22;27925;41.874;12.526;2023-09-19T13:12:42;31.50;54.60
40538;DHT22;27925;41.874;12.526;2023-09-19T13:15:15;31.50;54.60
40538;DHT22;27925;41.874;12.526;2023-09-19T13:17:49;31.60;54.40
40538;DHT22;27925;41.874;12.526;2023-09-19T13:20:25;31.60;54.30
40538;DHT22;27925;41.874;12.526;2023-09-19T13:22:57;31.70;54.30
40538;DHT22;27925;41.874;12.526;2023-09-19T13:25:33;31.70;53.80
40538;DHT22;27925;41.874;12.526;2023-09-19T13:28:00;31.70;54.30
40538;DHT22;27925;41.874;12.526;2023-09-19T13:30:30;31.60;54.30
40538;DHT22;27925;41.874;12.526;2023-09-19T13:33:10;31.60;54.20
40538;DHT22;27925;41.874;12.526;2023-09-19T13:35:38;31.50;54.20
40538;DHT22;27925;41.874;12.526;2023-09-19T13:38:05;31.40;54.30
40538;DHT22;27925;41.874;12.526;2023-09-19T13:40:32;31.40;54.30
40538;DHT22;27925;41.874;12.526;2023-09-19T13:43:01;31.40;54.20
40538;DHT22;27925;41.874;12.526;2023-09-19T13:45:26;31.30;53.80
40538;DHT22;27925;41.874;12.526;2023-09-19T13:47:52;31.20;54.20
40538;DHT22;27925;41.874;12.526;2023-09-19T13:50:19;31.20;54.40
40538;DHT22;27925;41.874;12.526;2023-09-19T13:52:49;31.20;54.90
40538;DHT22;27925;41.874;12.526;2023-09-19T13:55:17;31.20;55.30
40538;DHT22;27925;41.874;12.526;2023-09-19T13:57:46;31.10;55.40
40538;DHT22;27925;41.874;12.526;2023-09-19T14:00:15;31.00;55.20
40538;DHT22;27925;41.874;12.526;2023-09-19T14:02:41;31.00;54.70
40538;DHT22;27925;41.874;12.526;2023-09-19T14:05:10;31.00;54.60
40538;DHT22;27925;41.874;12.526;2023-09-19T14:07:38;31.00;54.60
40538;DHT22;27925;41.874;12.526;2023-09-19T14:10:04;30.90;54.50
40538;DHT22;27925;41.874;12.526;2023-09-19T14:12:33;30.90;54.30
40538;DHT22;27925;41.874;12.526;2023-09-19T14:15:00;30.90;54.40
40538;DHT22;27925;41.874;12.526;2023-09-19T14:17:25;30.90;54.30
40538;DHT22;27925;41.874;12.526;2023-09-19T14:19:52;30.80;54.20
40538;DHT22;27925;41.874;12.526;2023-09-19T14:22:18;30.80;54.20
40538;DHT22;27925;41.874;12.526;2023-09-19T14:24:43;30.80;54.20
40538;DHT22;27925;41.874;12.526;2023-09-19T14:27:09;30.80;54.40
40538;DHT22;27925;41.874;12.526;2023-09-19T14:29:36;30.80;54.40
40538;DHT22;27925;41.874;12.526;2023-09-19T14:32:02;30.80;54.70
40538;DHT22;27925;41.874;12.526;2023-09-19T14:34:27;30.80;54.80
40538;DHT22;27925;41.874;12.526;2023-09-19T14:36:53;30.90;54.90
40538;DHT22;27925;41.874;12.526;2023-09-19T14:39:20;30.90;55.00
40538;DHT22;27925;41.874;12.526;2023-09-19T14:41:45;30.90;55.00
40538;DHT22;27925;41.874;12.526;2023-09-19T14:44:11;30.90;55.10
40538;DHT22;27925;41.874;12.526;2023-09-19T14:46:37;30.80;55.30
40538;DHT22;27925;41.874;12.526;2023-09-19T14:49:02;30.70;55.50
40538;DHT22;27925;41.874;12.526;2023-09-19T14:51:30;30.70;56.00
40538;DHT22;27925;41.874;12.526;2023-09-19T14:53:56;30.60;56.40
40538;DHT22;27925;41.874;12.526;2023-09-19T14:56:23;30.60;56.90
40538;DHT22;27925;41.874;12.526;2023-09-19T14:58:51;30.60;57.50
40538;DHT22;27925;41.874;12.526;2023-09-19T15:01:16;30.50;57.80
40538;DHT22;27925;41.874;12.526;2023-09-19T15:03:43;30.40;58.10
40538;DHT22;27925;41.874;12.526;2023-09-19T15:06:12;30.40;58.30
40538;DHT22;27925;41.874;12.526;2023-09-19T15:08:40;30.40;58.70
40538;DHT22;27925;41.874;12.526;2023-09-19T15:11:09;30.40;58.90
40538;DHT22;27925;41.874;12.526;2023-09-19T15:13:41;30.40;59.00
40538;DHT22;27925;41.874;12.526;2023-09-19T15:16:08;30.30;59.30
40538;DHT22;27925;41.874;12.526;2023-09-19T15:18:35;30.30;59.60
40538;DHT22;27925;41.874;12.526;2023-09-19T15:21:03;30.30;59.80
40538;DHT22;27925;41.874;12.526;2023-09-19T15:23:33;30.20;59.90
40538;DHT22;27925;41.874;12.526;2023-09-19T15:26:07;30.20;60.00
40538;DHT22;27925;41.874;12.526;2023-09-19T15:28:34;30.10;60.10
40538;DHT22;27925;41.874;12.526;2023-09-19T15:31:03;30.00;60.20
40538;DHT22;27925;41.874;12.526;2023-09-19T15:33:29;30.00;60.50
40538;DHT22;27925;41.874;12.526;2023-09-19T15:36:03;29.90;61.40
40538;DHT22;27925;41.874;12.526;2023-09-19T15:38:29;29.90;60.80
40538;DHT22;27925;41.874;12.526;2023-09-19T15:40:55;29.90;60.70
40538;DHT22;27925;41.874;12.526;2023-09-19T15:43:21;29.80;60.70
40538;DHT22;27925;41.874;12.526;2023-09-19T15:45:47;29.80;60.80
40538;DHT22;27925;41.874;12.526;2023-09-19T15:48:17;29.80;60.90
40538;DHT22;27925;41.874;12.526;2023-09-19T15:50:44;29.80;61.50
40538;DHT22;27925;41.874;12.526;2023-09-19T15:53:10;29.80;61.90
40538;DHT22;27925;41.874;12.526;2023-09-19T15:55:41;29.90;62.10
40538;DHT22;27925;41.874;12.526;2023-09-19T15:58:07;29.90;62.30
40538;DHT22;27925;41.874;12.526;2023-09-19T16:00:33;29.80;62.30
40538;DHT22;27925;41.874;12.526;2023-09-19T16:03:02;29.80;63.10
40538;DHT22;27925;41.874;12.526;2023-09-19T16:05:35;29.70;62.80
40538;DHT22;27925;41.874;12.526;2023-09-19T16:08:06;29.70;62.90
40538;DHT22;27925;41.874;12.526;2023-09-19T16:10:36;29.70;62.60
40538;DHT22;27925;41.874;12.526;2023-09-19T16:13:03;29.60;62.20
40538;DHT22;27925;41.874;12.526;2023-09-19T16:15:29;29.70;61.90
40538;DHT22;27925;41.874;12.526;2023-09-19T16:17:55;29.60;61.70